createdAt,value
2019-03-26T00:04:06.114Z,57.78
2019-03-26T00:08:10.011Z,57.84
2019-03-26T00:12:14.724Z,58.29
2019-03-26T00:16:19.467Z,58.83
2019-03-26T00:20:25.950Z,59.05
2019-03-26T00:24:30.717Z,58.63
2019-03-26T00:28:35.411Z,59.27
2019-03-26T00:32:40.167Z,59.49
2019-03-26T00:36:44.914Z,60.51
2019-03-26T00:40:49.700Z,60.85
2019-03-26T00:44:54.406Z,61.64
2019-03-26T00:48:59.163Z,61.36
2019-03-26T00:53:03.900Z,61.63
2019-03-26T00:57:08.607Z,62.42
2019-03-26T01:01:13.366Z,62.94
2019-03-26T01:05:18.430Z,63.31
2019-03-26T01:09:23.173Z,63.74
2019-03-26T01:13:28.095Z,63.37
2019-03-26T01:17:32.783Z,64.21
2019-03-26T01:21:37.541Z,63.69
2019-03-26T01:25:42.239Z,63.32
2019-03-26T01:29:46.964Z,63.95
2019-03-26T01:33:51.702Z,64.15
2019-03-26T01:37:56.453Z,64.68
2019-03-26T01:42:01.223Z,63.81
2019-03-26T01:46:05.971Z,64.18
2019-03-26T01:50:12.374Z,64.25
2019-03-26T01:54:17.078Z,63.99
2019-03-26T01:58:21.919Z,63.91
2019-03-26T02:02:26.661Z,63.52
2019-03-26T02:06:31.402Z,63.47
2019-03-26T02:10:36.152Z,63.51
2019-03-26T02:14:40.963Z,63.49
2019-03-26T02:18:45.710Z,63.35
2019-03-26T02:22:50.560Z,63.27
2019-03-26T02:26:55.379Z,63.42
2019-03-26T02:31:00.153Z,63.73
2019-03-26T02:35:17.733Z,63.13
2019-03-26T02:39:11.503Z,63.61
2019-03-26T02:43:16.214Z,63.81
2019-03-26T02:47:21.087Z,63.62
2019-03-26T02:51:25.819Z,63.38
2019-03-26T02:55:30.563Z,63.46
2019-03-26T02:59:35.338Z,63.36
2019-03-26T03:03:40.162Z,63.36
2019-03-26T03:07:44.914Z,63.51
2019-03-26T03:11:49.612Z,63.35
2019-03-26T03:15:54.346Z,63.38
2019-03-26T03:19:59.096Z,63.42
2019-03-26T03:24:03.869Z,63.47
2019-03-26T03:28:08.716Z,63.69
2019-03-26T03:32:13.546Z,63.47
2019-03-26T03:36:18.386Z,63.39
2019-03-26T03:40:23.231Z,63.33
2019-03-26T03:44:27.946Z,63.23
2019-03-26T03:48:34.668Z,63.24
2019-03-26T03:52:41.147Z,63.17
2019-03-26T03:56:46.601Z,63.05
2019-03-26T04:00:51.626Z,63.33
2019-03-26T04:04:56.323Z,62.60
2019-03-26T04:09:02.206Z,62.45
2019-03-26T04:13:06.966Z,62.18
2019-03-26T04:17:11.698Z,61.77
2019-03-26T04:21:16.460Z,61.89
2019-03-26T04:25:21.354Z,61.71
2019-03-26T04:29:26.101Z,61.66
2019-03-26T04:33:30.891Z,61.62
2019-03-26T04:37:35.647Z,61.71
2019-03-26T04:41:40.394Z,61.88
2019-03-26T04:45:45.144Z,61.89
2019-03-26T04:49:49.850Z,61.76
2019-03-26T04:53:54.612Z,61.77
2019-03-26T04:57:59.716Z,62.03
2019-03-26T05:02:04.721Z,61.74
2019-03-26T05:06:09.522Z,61.87
2019-03-26T05:10:14.650Z,62.09
2019-03-26T05:14:19.358Z,61.77
2019-03-26T05:18:24.132Z,61.82
2019-03-26T05:22:28.944Z,62.18
2019-03-26T05:26:34.074Z,61.63
2019-03-26T05:30:38.772Z,61.13
2019-03-26T05:34:43.631Z,60.98
2019-03-26T05:38:48.598Z,60.97
2019-03-26T05:42:53.348Z,60.94
2019-03-26T05:46:58.094Z,61.27
2019-03-26T05:51:02.834Z,61.14
2019-03-26T05:55:08.112Z,61.23
2019-03-26T05:59:12.882Z,60.91
2019-03-26T06:03:17.633Z,60.81
2019-03-26T06:07:22.435Z,60.49
2019-03-26T06:11:27.140Z,60.71
2019-03-26T06:15:31.873Z,60.91
2019-03-26T06:19:36.723Z,60.65
2019-03-26T06:23:41.481Z,60.46
2019-03-26T06:27:46.195Z,60.43
2019-03-26T06:31:50.947Z,60.70
2019-03-26T06:35:55.726Z,60.46
2019-03-26T06:40:00.464Z,60.64
2019-03-26T06:44:05.289Z,60.64
2019-03-26T06:48:10.476Z,60.43
2019-03-26T06:52:15.248Z,61.10
2019-03-26T06:56:20.043Z,60.52
2019-03-26T07:00:31.795Z,60.48
2019-03-26T07:04:45.920Z,61.04
2019-03-26T07:08:50.626Z,61.28
2019-03-26T07:12:55.524Z,61.03
2019-03-26T07:17:00.283Z,61.19
2019-03-26T07:21:05.040Z,60.46
2019-03-26T07:25:10.736Z,60.71
2019-03-26T07:29:15.638Z,60.41
2019-03-26T07:33:20.366Z,60.68
2019-03-26T07:37:25.169Z,60.64
2019-03-26T07:41:29.875Z,60.13
2019-03-26T07:45:35.014Z,60.24
2019-03-26T07:49:40.233Z,60.63
2019-03-26T07:53:44.977Z,60.42
2019-03-26T07:57:49.738Z,59.90
2019-03-26T08:01:54.429Z,59.72
2019-03-26T08:05:59.493Z,59.52
2019-03-26T08:10:04.313Z,59.23
2019-03-26T08:14:09.083Z,59.13
2019-03-26T08:18:13.788Z,58.27
2019-03-26T08:22:18.544Z,58.50
2019-03-26T08:26:23.259Z,57.39
2019-03-26T08:30:28.408Z,57.38
2019-03-26T08:34:33.179Z,56.54
2019-03-26T08:38:37.893Z,57.07
2019-03-26T08:42:42.665Z,56.10
2019-03-26T08:46:47.425Z,54.67
2019-03-26T08:50:52.197Z,54.30
2019-03-26T08:54:56.950Z,51.10
2019-03-26T08:59:03.113Z,51.92
2019-03-26T09:03:07.944Z,51.91
2019-03-26T09:07:12.665Z,51.92
2019-03-26T09:11:17.429Z,51.40
2019-03-26T09:15:22.195Z,50.70
2019-03-26T09:19:27.467Z,48.06
2019-03-26T09:23:32.237Z,48.30
2019-03-26T09:27:36.956Z,48.52
2019-03-26T09:31:42.720Z,48.13
2019-03-26T09:35:47.779Z,47.57
2019-03-26T09:39:52.531Z,45.60
2019-03-26T09:43:57.233Z,46.63
2019-03-26T09:48:02.190Z,47.98
2019-03-26T09:52:06.895Z,48.02
2019-03-26T09:56:11.667Z,48.41
2019-03-26T10:00:16.692Z,48.07
2019-03-26T10:04:21.655Z,48.16
2019-03-26T10:08:26.737Z,48.25
2019-03-26T10:12:31.500Z,47.89
2019-03-26T10:16:36.257Z,48.09
2019-03-26T10:20:40.986Z,47.14
2019-03-26T10:24:45.736Z,47.02
2019-03-26T10:28:50.492Z,45.95
2019-03-26T10:32:55.246Z,47.77
2019-03-26T10:37:01.026Z,46.85
2019-03-26T10:41:05.739Z,47.07
2019-03-26T10:45:11.018Z,46.22
2019-03-26T10:49:15.798Z,46.91
2019-03-26T10:53:20.567Z,47.17
2019-03-26T10:57:25.338Z,46.75
2019-03-26T11:01:30.102Z,45.93
2019-03-26T11:05:35.397Z,45.35
2019-03-26T11:09:40.106Z,46.33
2019-03-26T11:13:44.953Z,45.32
2019-03-26T11:17:49.906Z,45.02
2019-03-26T11:21:54.690Z,44.93
2019-03-26T11:25:59.462Z,43.99
2019-03-26T11:30:04.615Z,43.60
2019-03-26T11:34:09.771Z,44.30
2019-03-26T11:38:14.659Z,43.56
2019-03-26T11:42:19.496Z,43.35
2019-03-26T11:46:24.333Z,43.19
2019-03-26T11:50:29.294Z,43.80
2019-03-26T11:54:34.068Z,43.22
2019-03-26T11:58:38.874Z,43.08
2019-03-26T12:02:43.694Z,43.02
2019-03-26T12:06:48.433Z,43.45
2019-03-26T12:10:53.304Z,43.28
2019-03-26T12:14:58.172Z,43.35
2019-03-26T12:19:02.963Z,43.68
2019-03-26T12:23:07.688Z,43.31
2019-03-26T12:27:12.455Z,43.39
2019-03-26T12:31:17.233Z,41.74
2019-03-26T12:35:29.983Z,41.12
2019-03-26T12:39:34.747Z,42.18
2019-03-26T12:43:39.507Z,41.60
2019-03-26T12:47:44.397Z,41.17
2019-03-26T12:51:49.119Z,42.11
2019-03-26T12:55:54.212Z,40.60
2019-03-26T12:59:58.915Z,41.67
2019-03-26T13:04:12.670Z,40.87
2019-03-26T13:08:10.223Z,39.72
2019-03-26T13:12:14.986Z,40.25
2019-03-26T13:16:19.694Z,40.60
2019-03-26T13:20:24.449Z,41.90
2019-03-26T13:24:29.283Z,42.11
2019-03-26T13:28:35.110Z,41.22
2019-03-26T13:32:42.879Z,39.90
2019-03-26T13:36:48.583Z,40.68
2019-03-26T13:40:53.456Z,40.68
2019-03-26T13:44:59.843Z,39.59
2019-03-26T13:49:05.319Z,39.35
2019-03-26T13:53:11.909Z,40.05
2019-03-26T13:57:16.701Z,40.19
2019-03-26T14:01:22.740Z,40.27
2019-03-26T14:05:28.010Z,39.66
2019-03-26T14:09:34.264Z,40.34
2019-03-26T14:13:39.097Z,39.86
2019-03-26T14:17:43.992Z,38.04
2019-03-26T14:21:48.982Z,39.47
2019-03-26T14:25:53.983Z,39.09
2019-03-26T14:29:58.834Z,40.20
2019-03-26T14:34:03.720Z,40.20
2019-03-26T14:38:08.656Z,40.02
2019-03-26T14:42:13.363Z,39.85
2019-03-26T14:46:18.128Z,39.85
2019-03-26T14:50:23.053Z,39.91
2019-03-26T14:54:27.931Z,39.84
2019-03-26T14:58:32.658Z,39.20
2019-03-26T15:02:37.625Z,38.84
2019-03-26T15:06:42.374Z,39.93
2019-03-26T15:10:47.167Z,39.20
2019-03-26T15:14:51.999Z,38.59
2019-03-26T15:18:56.743Z,39.86
2019-03-26T15:23:01.748Z,38.89
2019-03-26T15:27:06.489Z,39.18
2019-03-26T15:31:11.256Z,39.33
2019-03-26T15:35:16.459Z,39.85
2019-03-26T15:39:21.219Z,40.20
2019-03-26T15:43:26.106Z,40.17
2019-03-26T15:47:30.937Z,39.63
2019-03-26T15:51:36.106Z,39.82
2019-03-26T15:55:41.015Z,39.41
2019-03-26T15:59:45.784Z,40.02
2019-03-26T16:03:50.749Z,40.08
2019-03-26T16:07:56.087Z,40.35
2019-03-26T16:12:00.980Z,41.13
2019-03-26T16:16:05.752Z,41.48
2019-03-26T16:20:10.906Z,41.79
2019-03-26T16:24:16.671Z,41.81
2019-03-26T16:28:22.053Z,42.39
2019-03-26T16:32:26.871Z,42.17
2019-03-26T16:36:32.024Z,41.30
2019-03-26T16:40:36.927Z,41.90
2019-03-26T16:44:42.179Z,42.17
2019-03-26T16:48:47.148Z,41.94
2019-03-26T16:52:52.135Z,41.51
2019-03-26T16:56:56.891Z,41.18
2019-03-26T17:01:01.654Z,40.44
2019-03-26T17:05:07.129Z,41.32
2019-03-26T17:09:11.839Z,41.00
2019-03-26T17:13:16.580Z,41.19
2019-03-26T17:17:21.352Z,41.68
2019-03-26T17:21:26.106Z,41.73
2019-03-26T17:25:30.942Z,41.34
2019-03-26T17:29:35.676Z,41.01
2019-03-26T17:33:40.426Z,41.07
2019-03-26T17:37:58.633Z,40.65
2019-03-26T17:41:51.751Z,39.93
2019-03-26T17:45:56.509Z,40.80
2019-03-26T17:50:01.813Z,40.30
2019-03-26T17:54:06.593Z,40.75
2019-03-26T17:58:11.375Z,40.29
2019-03-26T18:02:16.488Z,40.66
2019-03-26T18:06:21.212Z,40.82
2019-03-26T18:10:25.981Z,40.79
2019-03-26T18:14:30.739Z,40.15
2019-03-26T18:18:35.502Z,40.32
2019-03-26T18:22:40.279Z,40.84
2019-03-26T18:26:45.070Z,40.62
2019-03-26T18:30:49.956Z,40.42
2019-03-26T18:34:54.764Z,40.49
2019-03-26T18:38:59.521Z,40.45
2019-03-26T18:43:04.419Z,40.54
2019-03-26T18:47:09.130Z,40.60
2019-03-26T18:51:13.932Z,41.18
2019-03-26T18:55:18.650Z,41.09
2019-03-26T18:59:23.509Z,41.52
2019-03-26T19:03:28.237Z,41.56
2019-03-26T19:07:32.978Z,41.38
2019-03-26T19:11:38.149Z,41.91
2019-03-26T19:15:43.325Z,42.19
2019-03-26T19:19:48.150Z,42.29
2019-03-26T19:24:03.365Z,42.40
2019-03-26T19:27:59.813Z,42.48
2019-03-26T19:32:04.586Z,42.93
2019-03-26T19:36:09.436Z,42.74
2019-03-26T19:40:14.293Z,43.16
2019-03-26T19:44:19.128Z,42.80
2019-03-26T19:48:24.169Z,43.10
2019-03-26T19:52:28.961Z,43.43
2019-03-26T19:56:33.907Z,42.99
2019-03-26T20:00:38.874Z,43.44
2019-03-26T20:04:43.638Z,43.44
2019-03-26T20:08:48.879Z,43.48
2019-03-26T20:12:53.700Z,43.17
2019-03-26T20:16:58.703Z,42.95
2019-03-26T20:21:04.123Z,42.89
2019-03-26T20:25:09.256Z,42.91
2019-03-26T20:29:14.211Z,42.64
2019-03-26T20:33:18.993Z,43.05
2019-03-26T20:37:23.867Z,43.16
2019-03-26T20:41:29.800Z,42.98
2019-03-26T20:45:35.769Z,42.84
2019-03-26T20:49:40.685Z,42.84
2019-03-26T20:53:45.502Z,42.90
2019-03-26T20:57:50.605Z,43.34
2019-03-26T21:01:55.549Z,43.36
2019-03-26T21:06:02.288Z,43.26
2019-03-26T21:10:08.893Z,43.26
2019-03-26T21:14:13.598Z,43.42
2019-03-26T21:18:25.222Z,43.09
2019-03-26T21:22:30.205Z,43.00
2019-03-26T21:26:35.059Z,42.86
2019-03-26T21:30:40.006Z,43.33
2019-03-26T21:34:44.823Z,43.13
2019-03-26T21:38:49.989Z,42.87
2019-03-26T21:42:54.753Z,43.22
2019-03-26T21:46:59.470Z,43.27
2019-03-26T21:51:04.214Z,43.39
2019-03-26T21:55:13.068Z,43.20
2019-03-26T21:59:16.190Z,43.39
2019-03-26T22:03:21.004Z,43.14
2019-03-26T22:07:25.781Z,43.58
2019-03-26T22:11:30.661Z,43.55
2019-03-26T22:15:35.519Z,43.44
2019-03-26T22:19:40.272Z,43.44
2019-03-26T22:23:45.000Z,43.81
2019-03-26T22:27:49.844Z,43.76
2019-03-26T22:31:54.812Z,43.93
2019-03-26T22:35:59.519Z,43.82
2019-03-26T22:40:04.384Z,43.73
2019-03-26T22:44:09.232Z,43.89
2019-03-26T22:48:13.979Z,43.75
2019-03-26T22:52:18.716Z,43.82
2019-03-26T22:56:23.445Z,44.03
2019-03-26T23:00:30.641Z,43.89
2019-03-26T23:04:35.525Z,44.21
2019-03-26T23:08:40.275Z,44.47
2019-03-26T23:12:45.017Z,44.39
2019-03-26T23:16:49.766Z,44.57
2019-03-26T23:20:54.469Z,44.51
2019-03-26T23:24:59.226Z,44.74
2019-03-26T23:29:04.072Z,44.83
2019-03-26T23:33:08.812Z,44.80
2019-03-26T23:37:13.653Z,45.11
2019-03-26T23:41:19.356Z,45.33
2019-03-26T23:45:24.112Z,45.28
2019-03-26T23:49:28.917Z,45.57
2019-03-26T23:53:33.735Z,45.53
2019-03-26T23:57:38.682Z,45.78
